Quenton Craig Harris — WDH9504 — position and weather

sailwx.info

Track history (hours):
 
Tides and Currents Weather Stations Pressure Air Temp Water Temp Dewpoint Dewpoint Depression Visibility Wind Speed Wind Dir Waves Ship Positions

Quenton Craig Harris

Owner: Marquette Transportation Co. LLC, Paducah, KY. More information available from US FCC via Universal Licensing System and Coast Guard Vessel Documentation Center.

Last reported at 2017-Oct-13 12:02 UTC. Time now 2017-Oct-18 16:28 UTC.
Position N 29°60' W 090°25'.

Length 42 m; draft 2.7 m.

Type: Towing. MMSI: 367668760.

Date/timePositionNaut miles runAvg speedWind from/ knotsBaromVisibWave heightAir tempDewpointWater temp
2017-Oct-13 12:02N 29°60' W 090°25'0 2.5
2017-Oct-13 12:00N 29°60' W 090°26'  
2017-Oct-10 20:00N 31°58' W 091°11'4 7.5
2017-Oct-10 19:29N 31°59' W 091°07'4 7.7
2017-Oct-10 19:00N 32°01' W 091°04'5 7.4
2017-Oct-10 18:20N 32°06' W 091°06'1 3.9
2017-Oct-10 17:59N 32°08' W 091°07'2 3.9
2017-Oct-10 17:29N 32°08' W 091°04'3 6.8
2017-Oct-10 17:00N 32°08' W 091°00'4 8.9
2017-Oct-10 16:30N 32°13' W 090°59'4 8.5
2017-Oct-10 16:00N 32°16' W 090°57'4 8.2
2017-Oct-10 15:30N 32°19' W 090°54'4 7.1
2017-Oct-10 15:00N 32°21' W 090°58'7 6.7
2017-Oct-10 14:00N 32°26' W 091°03'4 8.3
2017-Oct-10 13:30N 32°29' W 091°07'4 8.5
2017-Oct-10 12:59N 32°33' W 091°06'4 8.6
2017-Oct-10 12:30N 32°36' W 091°09'4 0.9
2017-Oct-10 07:47N 32°40' W 091°07'2 5.1
2017-Oct-10 07:27N 32°39' W 091°09'2 3.8
2017-Oct-10 06:57N 32°37' W 091°09'0 0.0
2017-Oct-10 06:27N 32°37' W 091°09'0 0.0
2017-Oct-10 06:00N 32°37' W 091°09'0 0.0
2017-Oct-10 05:30N 32°37' W 091°09'2 4.9
2017-Oct-10 05:00N 32°35' W 091°08'2 3.9
2017-Oct-10 04:28N 32°34' W 091°06'1 1.7
2017-Oct-10 04:00N 32°33' W 091°06'3 6.6
2017-Oct-10 03:30N 32°30' W 091°07'3 6.8
2017-Oct-10 03:00N 32°27' W 091°05'3 6.6
2017-Oct-10 02:30N 32°26' W 091°01'3 5.3
2017-Oct-10 02:00N 32°24' W 090°60'3 5.3
2017-Oct-10 01:30N 32°21' W 090°59'3 6.6
2017-Oct-10 01:00N 32°21' W 090°55'2 4.8
2017-Oct-10 00:30N 32°18' W 090°55'0 0.2
2017-Oct-09 23:59N 32°18' W 090°55'0 0.0
2017-Oct-09 23:29N 32°18' W 090°55'0 0.0
2017-Oct-09 22:59N 32°18' W 090°55'2 3.6
2017-Oct-09 22:29N 32°17' W 090°57'2 4.8
2017-Oct-09 22:01N 32°15' W 090°59'3 6.3
2017-Oct-09 21:30N 32°12' W 090°59'3 6.3
2017-Oct-09 21:00N 32°09' W 091°00'3 5.4
2017-Oct-09 20:30N 32°07' W 091°02'3 6.5
2017-Oct-09 20:00N 32°08' W 091°06'5 6.0
2017-Oct-09 19:12N 32°04' W 091°03'1 6.0
2017-Oct-09 19:00N 32°02' W 091°04'8 6.1
2017-Oct-09 17:41N 31°58' W 091°11'11 5.5
2017-Oct-09 15:40N 31°50' W 091°21'1 6.7
2017-Oct-09 15:30N 31°49' W 091°21'4 6.6
2017-Oct-09 14:57N 31°46' W 091°22'4 6.6
2017-Oct-09 14:23N 31°42' W 091°24'  
2017-Oct-03 13:04N 31°58' W 091°11'1 7.9
2017-Oct-03 13:00N 31°59' W 091°11'4 8.1
2017-Oct-03 12:30N 31°59' W 091°06'  
Track history (hours):
 
Tides and Currents Weather Stations Pressure Air Temp Water Temp Dewpoint Dewpoint Depression Visibility Wind Speed Wind Dir Waves Ship Positions

Quenton Craig Harris

Owner: Marquette Transportation Co. LLC, Paducah, KY. More information available from US FCC via Universal Licensing System and Coast Guard Vessel Documentation Center.

Last reported at 2017-Oct-13 12:02 UTC. Time now 2017-Oct-18 16:28 UTC.
Position N 29°60' W 090°25'.

Length 42 m; draft 2.7 m.

Type: Towing. MMSI: 367668760.

Date/timePositionNaut miles runAvg speedWind from/ knotsBaromVisibWave heightAir tempDewpointWater temp
2017-Oct-13 12:02N 29°60' W 090°25'0 2.5
2017-Oct-13 12:00N 29°60' W 090°26'  
2017-Oct-10 20:00N 31°58' W 091°11'4 7.5
2017-Oct-10 19:29N 31°59' W 091°07'4 7.7
2017-Oct-10 19:00N 32°01' W 091°04'5 7.4
2017-Oct-10 18:20N 32°06' W 091°06'1 3.9
2017-Oct-10 17:59N 32°08' W 091°07'2 3.9
2017-Oct-10 17:29N 32°08' W 091°04'3 6.8
2017-Oct-10 17:00N 32°08' W 091°00'4 8.9
2017-Oct-10 16:30N 32°13' W 090°59'4 8.5
2017-Oct-10 16:00N 32°16' W 090°57'4 8.2
2017-Oct-10 15:30N 32°19' W 090°54'4 7.1
2017-Oct-10 15:00N 32°21' W 090°58'7 6.7
2017-Oct-10 14:00N 32°26' W 091°03'4 8.3
2017-Oct-10 13:30N 32°29' W 091°07'4 8.5
2017-Oct-10 12:59N 32°33' W 091°06'4 8.6
2017-Oct-10 12:30N 32°36' W 091°09'4 0.9
2017-Oct-10 07:47N 32°40' W 091°07'2 5.1
2017-Oct-10 07:27N 32°39' W 091°09'2 3.8
2017-Oct-10 06:57N 32°37' W 091°09'0 0.0
2017-Oct-10 06:27N 32°37' W 091°09'0 0.0
2017-Oct-10 06:00N 32°37' W 091°09'0 0.0
2017-Oct-10 05:30N 32°37' W 091°09'2 4.9
2017-Oct-10 05:00N 32°35' W 091°08'2 3.9
2017-Oct-10 04:28N 32°34' W 091°06'1 1.7
2017-Oct-10 04:00N 32°33' W 091°06'3 6.6
2017-Oct-10 03:30N 32°30' W 091°07'3 6.8
2017-Oct-10 03:00N 32°27' W 091°05'3 6.6
2017-Oct-10 02:30N 32°26' W 091°01'3 5.3
2017-Oct-10 02:00N 32°24' W 090°60'3 5.3
2017-Oct-10 01:30N 32°21' W 090°59'3 6.6
2017-Oct-10 01:00N 32°21' W 090°55'2 4.8
2017-Oct-10 00:30N 32°18' W 090°55'0 0.2
2017-Oct-09 23:59N 32°18' W 090°55'0 0.0
2017-Oct-09 23:29N 32°18' W 090°55'0 0.0
2017-Oct-09 22:59N 32°18' W 090°55'2 3.6
2017-Oct-09 22:29N 32°17' W 090°57'2 4.8
2017-Oct-09 22:01N 32°15' W 090°59'3 6.3
2017-Oct-09 21:30N 32°12' W 090°59'3 6.3
2017-Oct-09 21:00N 32°09' W 091°00'3 5.4
2017-Oct-09 20:30N 32°07' W 091°02'3 6.5
2017-Oct-09 20:00N 32°08' W 091°06'5 6.0
2017-Oct-09 19:12N 32°04' W 091°03'1 6.0
2017-Oct-09 19:00N 32°02' W 091°04'8 6.1
2017-Oct-09 17:41N 31°58' W 091°11'11 5.5
2017-Oct-09 15:40N 31°50' W 091°21'1 6.7
2017-Oct-09 15:30N 31°49' W 091°21'4 6.6
2017-Oct-09 14:57N 31°46' W 091°22'4 6.6
2017-Oct-09 14:23N 31°42' W 091°24'  
2017-Oct-03 13:04N 31°58' W 091°11'1 7.9
2017-Oct-03 13:00N 31°59' W 091°11'4 8.1
2017-Oct-03 12:30N 31°59' W 091°06'  

Dump ship's entire track history